Time;durP1;ratioP1;P1;durP2;ratioP2;P2;SDS_P1;SDS_P2;PMS_P1;PMS_P2;Temp;Humidity;BMP_temperature;BMP_pressure;BME280_temperature;BME280_humidity;BME280_pressure;Samples;Min_cycle;Max_cycle;Signal;HPM_P1;HPM_P2
2021/07/12 00:02:00;;;;;;;13.05;10.95;;;;;;;;;;5053484;28;20044;-66
2021/07/12 00:04:26;;;;;;;12.98;10.70;;;;;;;;;;5054730;28;20032;-65
2021/07/12 00:06:52;;;;;;;14.73;10.90;;;;;;;;;;5053446;28;20123;-65
2021/07/12 00:09:18;;;;;;;14.10;10.98;;;;;;;;;;5054622;28;20060;-66
2021/07/12 00:11:45;;;;;;;14.40;10.63;;;;;;;;;;5054544;28;20052;-65
2021/07/12 00:14:11;;;;;;;12.50;10.75;;;;;;;;;;5054509;28;20025;-64
2021/07/12 00:16:37;;;;;;;11.80;10.60;;;;;;;;;;5053467;28;20425;-66
2021/07/12 00:19:04;;;;;;;19.58;11.35;;;;;;;;;;5054450;28;20068;-65
2021/07/12 00:21:30;;;;;;;12.68;11.35;;;;;;;;;;5054667;28;20035;-65
2021/07/12 00:23:56;;;;;;;12.77;10.38;;;;;;;;;;5054339;28;20025;-67
2021/07/12 00:26:22;;;;;;;13.02;10.90;;;;;;;;;;5054590;28;20474;-66
2021/07/12 00:28:49;;;;;;;10.93;9.73;;;;;;;;;;5054278;28;20111;-65
2021/07/12 00:31:15;;;;;;;12.20;10.88;;;;;;;;;;5054131;28;20060;-66
2021/07/12 00:33:41;;;;;;;11.00;9.90;;;;;;;;;;5054153;28;20100;-66
2021/07/12 00:36:08;;;;;;;12.82;9.85;;;;;;;;;;5054151;28;20017;-64
2021/07/12 00:38:34;;;;;;;12.93;9.65;;;;;;;;;;5052810;28;20032;-65
2021/07/12 00:41:00;;;;;;;10.90;9.13;;;;;;;;;;5054147;28;20145;-66
2021/07/12 00:43:26;;;;;;;18.88;9.60;;;;;;;;;;5054254;28;20029;-67
2021/07/12 00:45:53;;;;;;;12.18;9.55;;;;;;;;;;5053932;28;20140;-67
2021/07/12 00:48:19;;;;;;;12.85;9.80;;;;;;;;;;5052613;28;20118;-66
2021/07/12 00:50:46;;;;;;;10.07;9.07;;;;;;;;;;5053043;28;20037;-65
2021/07/12 00:53:13;;;;;;;11.63;8.77;;;;;;;;;;5053830;28;20094;-67
2021/07/12 00:55:41;;;;;;;9.85;8.82;;;;;;;;;;5053552;28;20025;-66
2021/07/12 00:58:33;;;;;;;15.05;9.80;;;;;;;;;;5053728;28;20029;-65
2021/07/12 01:01:01;;;;;;;9.38;8.32;;;;;;;;;;5050592;28;20504;-65
2021/07/12 01:03:28;;;;;;;11.15;8.48;;;;;;;;;;5052326;28;20064;-64
2021/07/12 01:05:54;;;;;;;9.88;8.63;;;;;;;;;;5052060;28;20074;-65
2021/07/12 01:08:21;;;;;;;12.73;8.57;;;;;;;;;;5052575;28;20095;-66
2021/07/12 01:10:53;;;;;;;9.27;8.13;;;;;;;;;;5053370;28;20040;-64
2021/07/12 01:13:38;;;;;;;8.68;7.68;;;;;;;;;;5052175;28;20028;-65
2021/07/12 01:16:22;;;;;;;11.85;8.02;;;;;;;;;;5053500;28;20049;-68
2021/07/12 01:19:07;;;;;;;9.18;8.27;;;;;;;;;;5053458;28;20453;-65
2021/07/12 01:21:52;;;;;;;10.25;8.05;;;;;;;;;;5045609;28;20040;-66
2021/07/12 01:24:33;;;;;;;12.48;8.18;;;;;;;;;;5031821;28;20044;-65
2021/07/12 01:27:06;;;;;;;11.10;8.43;;;;;;;;;;5033671;28;20021;-65
2021/07/12 01:29:52;;;;;;;12.82;8.35;;;;;;;;;;5031996;28;20029;-65
2021/07/12 01:32:30;;;;;;;10.25;8.43;;;;;;;;;;5022493;28;20124;-68
2021/07/12 01:35:12;;;;;;;11.25;8.13;;;;;;;;;;5031927;28;20033;-65
2021/07/12 01:37:56;;;;;;;15.23;8.75;;;;;;;;;;5033253;28;20083;-66
2021/07/12 01:40:55;;;;;;;9.73;8.30;;;;;;;;;;5033001;28;20462;-66
2021/07/12 01:43:39;;;;;;;12.52;8.77;;;;;;;;;;5000082;28;20047;-65
2021/07/12 01:46:16;;;;;;;14.57;9.35;;;;;;;;;;5032972;28;20163;-64
2021/07/12 01:48:51;;;;;;;13.70;9.00;;;;;;;;;;5033140;28;20497;-64
2021/07/12 01:51:20;;;;;;;12.15;9.13;;;;;;;;;;5031678;28;20087;-65
2021/07/12 01:53:49;;;;;;;13.55;8.80;;;;;;;;;;5033025;28;20021;-66
2021/07/12 01:56:22;;;;;;;14.73;9.52;;;;;;;;;;5033001;28;20109;-66
2021/07/12 01:58:58;;;;;;;11.05;8.52;;;;;;;;;;5032749;28;20014;-65
2021/07/12 02:01:25;;;;;;;9.75;7.97;;;;;;;;;;5032715;28;20430;-63
2021/07/12 02:03:52;;;;;;;12.60;8.75;;;;;;;;;;5031291;28;20168;-63
2021/07/12 02:06:20;;;;;;;11.27;8.80;;;;;;;;;;5031669;28;20452;-64
2021/07/12 02:08:47;;;;;;;11.65;8.43;;;;;;;;;;5032896;28;20071;-64
2021/07/12 02:11:16;;;;;;;12.07;9.00;;;;;;;;;;5032797;28;20034;-65
2021/07/12 02:13:43;;;;;;;11.48;9.40;;;;;;;;;;5032827;28;20488;-65
2021/07/12 02:16:10;;;;;;;9.95;8.35;;;;;;;;;;5032794;28;20108;-67
2021/07/12 02:18:36;;;;;;;15.80;9.68;;;;;;;;;;5032835;28;20113;-64
2021/07/12 02:21:05;;;;;;;16.33;9.00;;;;;;;;;;5035481;28;20033;-64
2021/07/12 02:23:32;;;;;;;15.55;8.45;;;;;;;;;;5036725;28;20524;-65
2021/07/12 02:25:59;;;;;;;11.18;8.75;;;;;;;;;;5035354;28;20030;-65
2021/07/12 02:28:26;;;;;;;10.85;8.48;;;;;;;;;;5036619;28;20030;-65
2021/07/12 02:30:53;;;;;;;10.45;8.05;;;;;;;;;;5035142;28;20179;-65
2021/07/12 02:33:21;;;;;;;12.00;8.93;;;;;;;;;;5036509;28;20025;-64
2021/07/12 02:35:48;;;;;;;10.93;8.45;;;;;;;;;;5036328;28;20034;-65
2021/07/12 02:38:14;;;;;;;13.32;9.10;;;;;;;;;;5036462;28;20643;-64
2021/07/12 02:40:41;;;;;;;12.13;8.88;;;;;;;;;;5035114;28;20460;-67
2021/07/12 02:43:09;;;;;;;11.00;8.93;;;;;;;;;;5035043;28;20045;-65
2021/07/12 02:45:36;;;;;;;10.93;9.55;;;;;;;;;;5036329;28;20112;-65
2021/07/12 02:48:03;;;;;;;13.52;8.98;;;;;;;;;;5036353;28;20056;-64
2021/07/12 02:50:29;;;;;;;10.30;8.95;;;;;;;;;;5035827;28;20036;-64
2021/07/12 02:52:55;;;;;;;15.05;8.70;;;;;;;;;;5036179;28;20755;-66
2021/07/12 02:55:22;;;;;;;10.35;8.63;;;;;;;;;;5035899;28;20529;-65
2021/07/12 02:57:48;;;;;;;13.98;9.13;;;;;;;;;;5036117;28;20018;-64
2021/07/12 03:00:15;;;;;;;10.57;9.07;;;;;;;;;;5036016;28;20026;-65
2021/07/12 03:02:42;;;;;;;11.90;9.55;;;;;;;;;;5036102;28;20029;-65
2021/07/12 03:05:09;;;;;;;15.02;10.15;;;;;;;;;;5034360;28;20021;-67
2021/07/12 03:07:42;;;;;;;12.65;10.05;;;;;;;;;;5035923;28;20022;-68
2021/07/12 03:10:10;;;;;;;12.77;9.18;;;;;;;;;;5035895;28;20049;-69
2021/07/12 03:12:48;;;;;;;11.02;9.23;;;;;;;;;;5035701;28;20067;-69
2021/07/12 03:15:15;;;;;;;14.00;10.43;;;;;;;;;;5034264;28;20032;-67
2021/07/12 03:17:45;;;;;;;12.55;9.77;;;;;;;;;;5036061;28;20093;-70
2021/07/12 03:20:12;;;;;;;13.32;9.90;;;;;;;;;;5035595;28;20041;-69
2021/07/12 03:22:39;;;;;;;11.73;9.65;;;;;;;;;;5035652;28;20467;-69
2021/07/12 03:25:06;;;;;;;13.15;10.00;;;;;;;;;;5035826;28;20078;-69
2021/07/12 03:27:33;;;;;;;11.15;9.93;;;;;;;;;;5034282;28;20022;-68
2021/07/12 03:30:01;;;;;;;11.15;9.23;;;;;;;;;;5035482;28;20037;-70
2021/07/12 03:32:30;;;;;;;11.27;10.07;;;;;;;;;;5034323;28;20500;-73
2021/07/12 03:34:56;;;;;;;16.60;10.98;;;;;;;;;;5035408;28;20113;-69
2021/07/12 03:37:23;;;;;;;14.10;10.75;;;;;;;;;;5035675;28;20104;-67
2021/07/12 03:39:50;;;;;;;15.05;9.95;;;;;;;;;;5035255;28;20079;-68
2021/07/12 03:42:17;;;;;;;13.82;10.38;;;;;;;;;;5033882;28;20053;-70
2021/07/12 03:44:43;;;;;;;12.32;10.15;;;;;;;;;;5034929;28;20505;-71
2021/07/12 03:47:22;;;;;;;12.52;10.57;;;;;;;;;;5035069;28;20441;-70
2021/07/12 03:49:49;;;;;;;13.73;10.82;;;;;;;;;;5034886;28;20036;-66
2021/07/12 03:52:16;;;;;;;16.23;11.15;;;;;;;;;;5035053;28;20128;-67
2021/07/12 03:54:42;;;;;;;16.98;10.77;;;;;;;;;;5034883;28;20064;-68
2021/07/12 03:57:08;;;;;;;12.32;10.02;;;;;;;;;;5035269;28;20022;-70
2021/07/12 03:59:34;;;;;;;15.93;11.30;;;;;;;;;;5035046;28;20105;-70
2021/07/12 04:02:01;;;;;;;17.15;11.13;;;;;;;;;;5035545;28;20061;-71
2021/07/12 04:04:28;;;;;;;13.32;11.07;;;;;;;;;;5033676;28;20033;-69
2021/07/12 04:06:55;;;;;;;11.98;10.77;;;;;;;;;;5040999;28;20048;-66
2021/07/12 04:09:21;;;;;;;11.57;10.40;;;;;;;;;;5042261;28;20029;-68
2021/07/12 04:11:49;;;;;;;12.52;10.85;;;;;;;;;;5034344;28;20033;-69
2021/07/12 04:14:16;;;;;;;11.95;10.75;;;;;;;;;;5035445;28;20030;-67
2021/07/12 04:16:43;;;;;;;13.75;10.48;;;;;;;;;;5035483;28;20029;-68
2021/07/12 04:19:09;;;;;;;12.70;10.52;;;;;;;;;;5034158;28;20037;-67
2021/07/12 04:21:35;;;;;;;14.32;11.40;;;;;;;;;;5034854;28;20056;-69
2021/07/12 04:24:02;;;;;;;13.60;11.00;;;;;;;;;;5034192;28;20379;-69
2021/07/12 04:26:28;;;;;;;12.77;11.40;;;;;;;;;;5034421;28;20025;-70
2021/07/12 04:28:55;;;;;;;13.48;9.80;;;;;;;;;;5034432;28;20018;-69
2021/07/12 04:31:21;;;;;;;13.65;11.27;;;;;;;;;;5034251;28;20021;-69
2021/07/12 04:33:47;;;;;;;15.52;11.00;;;;;;;;;;5032990;28;20033;-69
2021/07/12 04:36:13;;;;;;;16.10;11.30;;;;;;;;;;5034223;28;20021;-67
2021/07/12 04:38:40;;;;;;;15.15;11.52;;;;;;;;;;5032907;28;20025;-68
2021/07/12 04:41:06;;;;;;;13.60;11.88;;;;;;;;;;5034213;28;20116;-69
2021/07/12 04:43:32;;;;;;;13.05;11.63;;;;;;;;;;5033939;28;20017;-70
2021/07/12 04:45:59;;;;;;;15.32;11.05;;;;;;;;;;5033782;28;20055;-68
2021/07/12 04:48:25;;;;;;;13.60;11.52;;;;;;;;;;5033721;28;20433;-67
2021/07/12 04:50:51;;;;;;;15.65;11.38;;;;;;;;;;5034128;28;20029;-69
2021/07/12 04:53:18;;;;;;;14.57;12.02;;;;;;;;;;5033887;28;20037;-68
2021/07/12 04:55:44;;;;;;;13.55;11.30;;;;;;;;;;5032605;28;20025;-67
2021/07/12 04:58:11;;;;;;;13.48;12.00;;;;;;;;;;5034164;28;20159;-66
2021/07/12 05:00:38;;;;;;;21.02;12.35;;;;;;;;;;5033780;28;20068;-68
2021/07/12 05:03:05;;;;;;;14.63;11.93;;;;;;;;;;5033805;28;20151;-68
2021/07/12 05:05:33;;;;;;;14.35;12.13;;;;;;;;;;5033668;28;20020;-67
2021/07/12 05:07:59;;;;;;;16.35;12.77;;;;;;;;;;5032392;28;20369;-70
2021/07/12 05:10:25;;;;;;;15.48;13.20;;;;;;;;;;5033557;28;20029;-69
2021/07/12 05:12:52;;;;;;;15.15;13.48;;;;;;;;;;5032163;28;20091;-69
2021/07/12 05:15:18;;;;;;;16.27;13.80;;;;;;;;;;5032278;28;20104;-69
2021/07/12 05:17:44;;;;;;;15.60;12.68;;;;;;;;;;5033488;28;20033;-68
2021/07/12 05:20:11;;;;;;;17.90;13.13;;;;;;;;;;5033505;28;20032;-68
2021/07/12 05:22:37;;;;;;;18.08;14.00;;;;;;;;;;5033406;28;20060;-67
2021/07/12 05:25:04;;;;;;;18.98;13.18;;;;;;;;;;5033384;28;20026;-66
2021/07/12 05:27:30;;;;;;;15.55;13.07;;;;;;;;;;5033227;28;20056;-67
2021/07/12 05:29:56;;;;;;;14.57;13.15;;;;;;;;;;5033334;28;20033;-67
2021/07/12 05:32:22;;;;;;;20.35;13.45;;;;;;;;;;5031927;28;20231;-66
2021/07/12 05:34:49;;;;;;;16.88;13.45;;;;;;;;;;5033451;28;20064;-66
2021/07/12 05:37:15;;;;;;;16.52;13.90;;;;;;;;;;5031804;28;20021;-67
2021/07/12 05:39:41;;;;;;;15.27;13.70;;;;;;;;;;5039196;28;20021;-68
2021/07/12 05:42:07;;;;;;;21.00;14.32;;;;;;;;;;5050135;28;20033;-68
2021/07/12 05:44:34;;;;;;;20.52;13.90;;;;;;;;;;5042013;28;20022;-64
2021/07/12 05:47:00;;;;;;;18.95;14.77;;;;;;;;;;5032898;28;20045;-67
2021/07/12 05:49:26;;;;;;;16.70;13.38;;;;;;;;;;5032991;28;20029;-64
2021/07/12 05:51:52;;;;;;;15.88;13.85;;;;;;;;;;5032882;28;20477;-64
2021/07/12 05:54:18;;;;;;;21.70;13.68;;;;;;;;;;5032016;28;20495;-64
2021/07/12 05:56:45;;;;;;;18.25;12.98;;;;;;;;;;5032877;28;20067;-62
2021/07/12 05:59:11;;;;;;;15.68;13.32;;;;;;;;;;5033165;28;20025;-63
2021/07/12 06:01:37;;;;;;;20.67;13.73;;;;;;;;;;5031440;28;20060;-64
2021/07/12 06:04:03;;;;;;;14.07;12.65;;;;;;;;;;5029522;28;20060;-63
2021/07/12 06:06:29;;;;;;;20.95;12.15;;;;;;;;;;5032368;28;20474;-63
2021/07/12 06:08:56;;;;;;;15.63;12.20;;;;;;;;;;5031219;28;20033;-63
2021/07/12 06:11:22;;;;;;;17.70;12.25;;;;;;;;;;5031052;28;20025;-64
2021/07/12 06:13:48;;;;;;;13.80;12.07;;;;;;;;;;5032447;28;20533;-68
2021/07/12 06:16:14;;;;;;;14.05;12.05;;;;;;;;;;5032420;28;20064;-67
2021/07/12 06:18:41;;;;;;;14.43;11.95;;;;;;;;;;5032663;28;20025;-69
2021/07/12 06:21:07;;;;;;;14.95;12.27;;;;;;;;;;5032662;28;20125;-68
2021/07/12 06:23:33;;;;;;;19.25;10.85;;;;;;;;;;5032655;28;20100;-68
2021/07/12 06:25:59;;;;;;;21.70;11.55;;;;;;;;;;5031323;28;20017;-67
2021/07/12 06:28:25;;;;;;;11.57;9.88;;;;;;;;;;5030945;28;20032;-69
2021/07/12 06:30:52;;;;;;;11.70;10.40;;;;;;;;;;5032682;28;20535;-68
2021/07/12 06:33:18;;;;;;;11.48;10.27;;;;;;;;;;5032526;28;20351;-66
2021/07/12 06:35:44;;;;;;;18.52;11.52;;;;;;;;;;5032583;28;20029;-69
2021/07/12 06:38:10;;;;;;;14.23;10.85;;;;;;;;;;5032486;28;20373;-69
2021/07/12 06:40:37;;;;;;;16.33;10.25;;;;;;;;;;5032656;28;20025;-67
2021/07/12 06:43:03;;;;;;;13.43;10.38;;;;;;;;;;5032537;28;20053;-68
2021/07/12 06:45:29;;;;;;;13.73;11.18;;;;;;;;;;5031080;28;20108;-67
2021/07/12 06:47:55;;;;;;;12.50;11.00;;;;;;;;;;5031798;28;20041;-68
2021/07/12 06:50:22;;;;;;;15.98;10.38;;;;;;;;;;5031379;28;20053;-68
2021/07/12 06:53:19;;;;;;;13.10;9.70;;;;;;;;;;5032344;28;20075;-67
2021/07/12 06:55:46;;;;;;;14.93;11.30;;;;;;;;;;5032345;28;20022;-67
2021/07/12 06:58:12;;;;;;;13.18;9.93;;;;;;;;;;5032461;28;20513;-68
2021/07/12 07:00:42;;;;;;;16.13;9.88;;;;;;;;;;5032393;28;20026;-67
2021/07/12 07:03:09;;;;;;;11.40;9.75;;;;;;;;;;5031046;28;20022;-67
2021/07/12 07:05:35;;;;;;;13.10;9.63;;;;;;;;;;5032303;28;20018;-70
2021/07/12 07:08:02;;;;;;;12.30;9.95;;;;;;;;;;5034696;28;20082;-67
2021/07/12 07:10:29;;;;;;;10.80;9.25;;;;;;;;;;5034591;28;20052;-68
2021/07/12 07:12:55;;;;;;;11.95;9.43;;;;;;;;;;5035456;28;20029;-69
2021/07/12 07:15:21;;;;;;;14.48;9.63;;;;;;;;;;5035758;28;20115;-67
2021/07/12 07:17:47;;;;;;;11.30;9.18;;;;;;;;;;5035323;28;20029;-68
2021/07/12 07:20:14;;;;;;;13.10;10.10;;;;;;;;;;5035652;28;20363;-69
2021/07/12 07:22:40;;;;;;;12.10;8.90;;;;;;;;;;5035400;28;20061;-68
2021/07/12 07:25:07;;;;;;;10.57;9.38;;;;;;;;;;5034229;28;20484;-68
2021/07/12 07:27:33;;;;;;;13.23;8.90;;;;;;;;;;5035083;28;20021;-68
2021/07/12 07:30:00;;;;;;;15.57;9.55;;;;;;;;;;5035335;28;20090;-67
2021/07/12 07:32:26;;;;;;;18.17;9.25;;;;;;;;;;5035242;28;20025;-68
2021/07/12 07:34:52;;;;;;;11.27;10.15;;;;;;;;;;5035639;28;20029;-69
2021/07/12 07:37:19;;;;;;;15.43;9.75;;;;;;;;;;5034943;28;20390;-72
2021/07/12 07:39:45;;;;;;;10.68;9.32;;;;;;;;;;5033829;28;20033;-68
2021/07/12 07:42:11;;;;;;;11.63;9.18;;;;;;;;;;5034818;28;20022;-70
2021/07/12 07:44:37;;;;;;;12.02;8.75;;;;;;;;;;5033848;28;20364;-70
2021/07/12 07:47:04;;;;;;;10.30;9.13;;;;;;;;;;5033529;28;20054;-67
2021/07/12 07:49:31;;;;;;;11.02;8.93;;;;;;;;;;5034656;28;20025;-66
2021/07/12 07:51:58;;;;;;;9.55;8.65;;;;;;;;;;5033555;28;20043;-68
2021/07/12 07:54:24;;;;;;;12.60;9.02;;;;;;;;;;5033588;28;20033;-68
2021/07/12 07:56:50;;;;;;;12.70;8.80;;;;;;;;;;5034946;28;20036;-68
2021/07/12 07:59:17;;;;;;;12.98;9.02;;;;;;;;;;5035158;28;20482;-69
2021/07/12 08:01:43;;;;;;;11.68;8.52;;;;;;;;;;5034769;28;20513;-69
2021/07/12 08:04:09;;;;;;;9.40;8.25;;;;;;;;;;5034840;28;20026;-71
2021/07/12 08:06:36;;;;;;;10.40;8.40;;;;;;;;;;5034784;28;20025;-70
2021/07/12 08:09:02;;;;;;;11.18;8.88;;;;;;;;;;5033351;28;20071;-68
2021/07/12 08:11:28;;;;;;;9.93;8.82;;;;;;;;;;5033248;28;20115;-69
2021/07/12 08:13:54;;;;;;;9.23;8.10;;;;;;;;;;5034555;28;20369;-67
2021/07/12 08:16:21;;;;;;;10.02;8.10;;;;;;;;;;5033265;28;20021;-68
2021/07/12 08:18:47;;;;;;;10.07;8.40;;;;;;;;;;5034073;28;20025;-66
2021/07/12 08:21:13;;;;;;;12.68;8.55;;;;;;;;;;5034459;28;20040;-67
2021/07/12 08:23:43;;;;;;;10.68;8.43;;;;;;;;;;5033075;28;20381;-70
2021/07/12 08:26:11;;;;;;;8.98;7.45;;;;;;;;;;5032939;28;20075;-67
2021/07/12 08:28:37;;;;;;;9.98;7.82;;;;;;;;;;5034486;28;20032;-68
2021/07/12 08:31:04;;;;;;;8.20;7.45;;;;;;;;;;5034099;28;20037;-68
2021/07/12 08:33:30;;;;;;;9.70;8.38;;;;;;;;;;5033981;28;20484;-69
2021/07/12 08:35:57;;;;;;;12.32;7.75;;;;;;;;;;5034134;28;20025;-67
2021/07/12 08:38:23;;;;;;;9.80;8.15;;;;;;;;;;5034020;28;20048;-68
2021/07/12 08:40:49;;;;;;;10.73;7.25;;;;;;;;;;5034112;28;20051;-68
2021/07/12 08:43:17;;;;;;;7.82;6.90;;;;;;;;;;5033990;28;20021;-67
2021/07/12 08:45:43;;;;;;;11.77;7.75;;;;;;;;;;5032542;28;20473;-70
2021/07/12 08:48:09;;;;;;;9.18;7.80;;;;;;;;;;5033953;28;20022;-70
2021/07/12 08:50:36;;;;;;;12.40;8.68;;;;;;;;;;5033908;28;20037;-70
2021/07/12 08:53:02;;;;;;;15.05;8.07;;;;;;;;;;5032334;28;20042;-70
2021/07/12 08:55:28;;;;;;;10.80;7.70;;;;;;;;;;5033807;28;20466;-70
2021/07/12 08:58:00;;;;;;;9.20;7.93;;;;;;;;;;5033883;28;20022;-69
2021/07/12 09:00:36;;;;;;;8.88;7.05;;;;;;;;;;5032482;28;20021;-67
2021/07/12 09:03:18;;;;;;;10.45;8.00;;;;;;;;;;5032294;28;20112;-69
2021/07/12 09:06:10;;;;;;;18.27;8.27;;;;;;;;;;5033683;28;20021;-71
2021/07/12 09:08:40;;;;;;;9.80;6.43;;;;;;;;;;5031275;28;20549;-68
2021/07/12 09:11:12;;;;;;;7.93;7.07;;;;;;;;;;5033541;28;20025;-68
2021/07/12 09:14:05;;;;;;;10.68;7.72;;;;;;;;;;5033539;28;20775;-70
2021/07/12 09:16:44;;;;;;;9.25;7.20;;;;;;;;;;5029192;28;20034;-69
2021/07/12 09:19:13;;;;;;;8.05;7.32;;;;;;;;;;5033497;28;20028;-69
2021/07/12 09:21:47;;;;;;;9.13;7.78;;;;;;;;;;5032104;28;20382;-68
2021/07/12 09:24:19;;;;;;;8.60;6.93;;;;;;;;;;5032042;28;20021;-70
2021/07/12 09:27:05;;;;;;;10.15;7.18;;;;;;;;;;5032002;28;20024;-68
2021/07/12 09:29:36;;;;;;;8.85;7.95;;;;;;;;;;5032478;28;20017;-71
2021/07/12 09:32:04;;;;;;;8.52;7.68;;;;;;;;;;5033313;28;20029;-70
2021/07/12 09:34:30;;;;;;;16.00;7.60;;;;;;;;;;5032959;28;20390;-71
2021/07/12 09:36:56;;;;;;;7.93;7.10;;;;;;;;;;5033126;28;20108;-71
2021/07/12 09:39:37;;;;;;;8.23;7.13;;;;;;;;;;5033072;28;20060;-69
2021/07/12 09:42:13;;;;;;;9.93;8.02;;;;;;;;;;5033205;28;20147;-72
2021/07/12 09:44:46;;;;;;;10.95;6.93;;;;;;;;;;5033206;28;20030;-71
2021/07/12 09:47:20;;;;;;;8.65;7.00;;;;;;;;;;5031323;28;20064;-68
2021/07/12 09:49:47;;;;;;;9.63;7.25;;;;;;;;;;5031772;28;20029;-70
2021/07/12 09:52:15;;;;;;;13.15;8.32;;;;;;;;;;5031622;28;20029;-71
2021/07/12 09:54:42;;;;;;;11.13;7.28;;;;;;;;;;5031718;28;20394;-72
2021/07/12 09:57:16;;;;;;;7.93;7.05;;;;;;;;;;5031635;28;20410;-68
2021/07/12 10:00:02;;;;;;;8.80;7.18;;;;;;;;;;5032987;28;20037;-70
2021/07/12 10:02:36;;;;;;;9.10;8.20;;;;;;;;;;5032905;28;20111;-69
2021/07/12 10:05:13;;;;;;;10.90;7.90;;;;;;;;;;5032574;28;20021;-69
2021/07/12 10:07:40;;;;;;;8.60;7.53;;;;;;;;;;5032642;28;20028;-70
2021/07/12 10:10:13;;;;;;;8.02;7.22;;;;;;;;;;5031154;28;20032;-71
2021/07/12 10:12:39;;;;;;;9.52;7.18;;;;;;;;;;5030275;28;20018;-71
2021/07/12 10:15:06;;;;;;;10.75;7.30;;;;;;;;;;5032007;28;20438;-71
2021/07/12 10:17:32;;;;;;;10.57;7.40;;;;;;;;;;5030841;28;20094;-69
2021/07/12 10:19:58;;;;;;;10.43;6.55;;;;;;;;;;5031990;28;20026;-70
2021/07/12 10:22:25;;;;;;;9.40;6.93;;;;;;;;;;5032742;28;20039;-69
2021/07/12 10:24:51;;;;;;;9.50;7.30;;;;;;;;;;5032703;28;20025;-69
2021/07/12 10:27:22;;;;;;;11.32;7.28;;;;;;;;;;5046542;28;20029;-70
2021/07/12 10:29:49;;;;;;;8.65;7.07;;;;;;;;;;5052458;28;20021;-72
2021/07/12 10:32:18;;;;;;;7.53;6.82;;;;;;;;;;5051090;28;20075;-70
2021/07/12 10:34:46;;;;;;;9.50;7.40;;;;;;;;;;5052468;28;20122;-73
2021/07/12 10:37:16;;;;;;;10.32;6.90;;;;;;;;;;5049972;28;20085;-68
2021/07/12 10:40:08;;;;;;;7.25;6.57;;;;;;;;;;5050615;28;20021;-72
2021/07/12 10:42:44;;;;;;;10.95;6.95;;;;;;;;;;5051840;28;20048;-68
2021/07/12 10:45:11;;;;;;;9.30;7.25;;;;;;;;;;5036163;28;20059;-68
2021/07/12 10:47:45;;;;;;;9.02;6.97;;;;;;;;;;5034662;28;20059;-70
2021/07/12 10:50:30;;;;;;;7.68;6.97;;;;;;;;;;5036162;28;20021;-71
2021/07/12 10:52:56;;;;;;;10.13;7.15;;;;;;;;;;5035843;28;20408;-69
2021/07/12 10:55:30;;;;;;;7.72;6.93;;;;;;;;;;5036009;28;20017;-70
2021/07/12 10:58:16;;;;;;;10.00;7.00;;;;;;;;;;5036089;28;20029;-69
2021/07/12 11:00:42;;;;;;;7.85;7.00;;;;;;;;;;5022374;28;20111;-70
2021/07/12 11:03:35;;;;;;;7.72;7.10;;;36.30;58.60;;;;;;5035887;28;20031;-69
2021/07/12 11:06:06;;;;;;;11.05;6.05;;;36.50;58.60;;;;;;5025625;28;20076;-70
2021/07/12 11:08:58;;;;;;;9.32;6.47;;;36.50;56.90;;;;;;5036085;28;20032;-71
2021/07/12 11:11:24;;;;;;;12.88;7.10;;;36.80;57.10;;;;;;5035797;28;20034;-69
2021/07/12 11:13:53;;;;;;;8.20;6.35;;;;;;;;;;5035842;28;20029;-69
2021/07/12 11:16:26;;;;;;;7.85;6.32;;;;;;;;;;5035432;28;20021;-70
2021/07/12 11:18:54;;;;;;;7.50;6.70;;;;;;;;;;5034263;28;20052;-71
2021/07/12 11:21:30;;;;;;;7.45;6.60;;;;;;;;;;5035611;28;20064;-71
2021/07/12 11:23:57;;;;;;;7.13;6.30;;;;;;;;;;5035441;28;20039;-70
2021/07/12 11:26:24;;;;;;;10.50;6.40;;;;;;;;;;5035447;28;20064;-70
2021/07/12 11:28:51;;;;;;;8.57;6.57;;;;;;;;;;5035488;28;20017;-71
2021/07/12 11:31:36;;;;;;;8.30;5.88;;;;;;;;;;5035097;28;20120;-70
2021/07/12 11:34:02;;;;;;;7.80;6.65;;;;;;;;;;5034039;28;20115;-70
2021/07/12 11:36:30;;;;;;;18.77;6.97;;;;;;;;;;5035310;28;20022;-70
2021/07/12 11:38:56;;;;;;;6.45;5.88;;;;;;;;;;5033940;28;20071;-67
2021/07/12 11:41:23;;;;;;;14.73;6.80;;;;;;;;;;5033965;28;20065;-68
2021/07/12 11:44:09;;;;;;;9.13;6.38;;;;;;;;;;5035421;28;20052;-68
2021/07/12 11:46:36;;;;;;;7.53;6.30;;;;;;;;;;5034565;28;20058;-68
2021/07/12 11:49:29;;;;;;;6.85;6.15;;;;;;;;;;5033587;28;20459;-69
2021/07/12 11:51:56;;;;;;;9.10;6.63;;;;;;;;;;5029164;28;20033;-69
2021/07/12 11:54:26;;;;;;;7.03;6.30;;;;;;;;;;5034488;28;20042;-69
2021/07/12 11:57:14;;;;;;;6.97;6.27;;;;;;;;;;5033799;28;20438;-70
2021/07/12 11:59:41;;;;;;;8.93;6.60;;;;;;;;;;5035002;28;20079;-70
2021/07/12 12:02:08;;;;;;;6.80;6.13;;;;;;;;;;5034592;28;20148;-70
2021/07/12 12:05:00;;;;;;;7.28;6.60;;;;;;;;;;5033486;28;20477;-70
2021/07/12 12:07:31;;;;;;;7.18;6.07;;;;;;;;;;5030945;28;20038;-69
2021/07/12 12:09:59;;;;;;;8.93;6.43;;;;;;;;;;5034722;28;20029;-70
2021/07/12 12:12:34;;;;;;;6.95;6.25;;;;;;;;;;5033447;28;20021;-73
2021/07/12 12:15:03;;;;;;;7.72;6.55;;;;;;;;;;5034674;28;20070;-69
2021/07/12 12:17:29;;;;;;;6.88;6.18;;;;;;;;;;5034646;28;20025;-72
2021/07/12 12:20:04;;;;;;;8.32;6.22;;;;;;;;;;5034688;28;20013;-69
2021/07/12 12:22:30;;;;;;;9.70;6.60;;;;;;;;;;5034537;28;20060;-68
2021/07/12 12:24:57;;;;;;;10.82;6.45;;;;;;;;;;5033174;28;20354;-69
2021/07/12 12:27:23;;;;;;;10.07;6.22;;;;;;;;;;5031270;28;20109;-69
2021/07/12 12:29:50;;;;;;;8.93;6.20;;;;;;;;;;5034338;28;20037;-69
2021/07/12 12:32:35;;;;;;;8.40;6.25;;;;;;;;;;5034328;28;20604;-70
2021/07/12 12:35:03;;;;;;;12.20;5.93;;;;;;;;;;5034297;28;20021;-72
2021/07/12 12:37:42;;;;;;;6.47;5.88;;;;;;;;;;5034388;28;20382;-70
2021/07/12 12:40:17;;;;;;;7.85;5.93;;;;;;;;;;5039726;28;20438;-68
2021/07/12 12:42:44;;;;;;;7.63;5.68;;;;;;;;;;5052102;28;20057;-68
2021/07/12 12:45:10;;;;;;;8.23;6.35;;;;;;;;;;5053356;28;20024;-67
2021/07/12 12:47:36;;;;;;;9.77;7.15;;;;;;;;;;5048317;28;20069;-68
2021/07/12 12:50:13;;;;;;;6.95;6.30;;;;;;;;;;5049123;28;20029;-68
2021/07/12 12:52:39;;;;;;;6.68;6.07;;;;;;;;;;5033913;28;20037;-72
2021/07/12 12:55:11;;;;;;;11.85;5.50;;;;;;;;;;5033927;28;20506;-70
2021/07/12 12:57:38;;;;;;;8.68;6.28;;;;;;;;;;5033954;28;20025;-69
2021/07/12 13:00:30;;;;;;;7.18;6.38;;;;;;;;;;5032609;28;20022;-70
2021/07/12 13:02:57;;;;;;;11.00;6.20;;;;;;;;;;5026636;28;20065;-70
2021/07/12 13:05:25;;;;;;;7.18;6.47;;;;;;;;;;5047919;28;20103;-69
2021/07/12 13:07:55;;;;;;;11.63;7.10;;;;;;;;;;5053657;28;20028;-71
2021/07/12 13:10:23;;;;;;;6.53;5.35;;;;;;;;;;5053398;28;20021;-70
2021/07/12 13:12:53;;;;;;;8.82;6.47;;;;;;;;;;5053421;28;20171;-70
2021/07/12 13:15:21;;;;;;;7.72;5.70;;;;;;;;;;5053480;28;20504;-69
2021/07/12 13:17:51;;;;;;;6.88;6.13;;;;;;;;;;5053227;28;20056;-69
2021/07/12 13:20:22;;;;;;;9.10;6.18;;;;;;;;;;5053409;28;20100;-69
2021/07/12 13:22:53;;;;;;;6.25;5.70;;;;;;;;;;5052074;28;20025;-69
2021/07/12 13:25:23;;;;;;;10.25;5.70;;;;;;;;;;5053383;28;20017;-69
2021/07/12 13:27:57;;;;;;;6.75;5.80;;;;;;;;;;5053100;28;20075;-68
2021/07/12 13:30:24;;;;;;;6.03;5.45;;;;;;;;;;5052555;28;20474;-69
2021/07/12 13:32:52;;;;;;;7.93;5.25;;;;;;;;;;5051833;28;20032;-68
2021/07/12 13:35:23;;;;;;;6.50;5.75;;;;;;;;;;5053181;28;20029;-69
2021/07/12 13:37:49;;;;;;;;;;;;;;;;;;5053655;28;20095;-69
2021/07/12 13:40:15;;;;;;;9.63;6.00;;;;;;;;;;5052907;28;19905;-68
2021/07/12 13:42:42;;;;;;;8.48;5.90;;;;;;;;;;5053176;28;20025;-70
2021/07/12 13:45:09;;;;;;;6.38;5.78;;;;;;;;;;5051740;28;20064;-69
2021/07/12 13:47:35;;;;;;;6.28;5.75;;;;;;;;;;5052577;28;20048;-69
2021/07/12 13:50:01;;;;;;;6.28;5.65;;;;;;;;;;5052887;28;20048;-68
2021/07/12 13:52:27;;;;;;;6.22;5.70;;;;;;;;;;5051617;28;20179;-70
2021/07/12 13:54:54;;;;;;;12.30;6.32;;;;;;;;;;5052992;28;20037;-68
2021/07/12 13:57:21;;;;;;;7.30;5.97;;;;;;;;;;5052915;28;20033;-68
2021/07/12 13:59:47;;;;;;;7.88;6.10;;;;;;;;;;5053024;28;20017;-67
2021/07/12 14:02:15;;;;;;;8.65;5.63;;;;;;;;;;5052859;28;20025;-69
2021/07/12 14:04:42;;;;;;;7.53;5.60;;;;;;;;;;5052514;28;20024;-70
2021/07/12 14:07:08;;;;;;;7.15;5.68;;;;;;;;;;5051485;28;20536;-68
2021/07/12 14:09:35;;;;;;;7.68;4.97;;;;;;;;;;5053047;28;20104;-69
2021/07/12 14:12:01;;;;;;;9.57;5.60;;;;;;;;;;5050170;28;20035;-68
2021/07/12 14:14:28;;;;;;;6.75;5.55;;;;;;;;;;5051990;28;20072;-69
2021/07/12 14:16:55;;;;;;;6.82;5.78;;;;;;;;;;5055133;28;20021;-70
2021/07/12 14:19:21;;;;;;;11.52;5.50;;;;;;;;;;5056756;28;20025;-67
2021/07/12 14:21:48;;;;;;;6.15;5.50;;;;;;;;;;5056546;28;20108;-67
2021/07/12 14:24:14;;;;;;;6.97;5.50;;;;;;;;;;5057009;28;20021;-69
2021/07/12 14:26:40;;;;;;;5.90;5.38;;;;;;;;;;5056632;28;20111;-69
2021/07/12 14:29:08;;;;;;;9.27;5.75;;;;;;;;;;5056616;28;20064;-68
2021/07/12 14:31:35;;;;;;;6.35;5.28;;;;;;;;;;5056768;28;20033;-70
2021/07/12 14:34:01;;;;;;;7.13;5.13;;;;;;;;;;5056732;28;20021;-68
2021/07/12 14:36:27;;;;;;;5.65;5.15;;;;;;;;;;5056138;28;20104;-69
2021/07/12 14:38:53;;;;;;;5.47;5.07;;;;;;;;;;5056442;28;20147;-69
2021/07/12 14:41:19;;;;;;;8.68;6.32;;;;;;;;;;5054853;28;20413;-70
2021/07/12 14:43:48;;;;;;;6.68;5.22;;;;;;;;;;5056678;28;20100;-70